Time;durP1;ratioP1;P1;durP2;ratioP2;P2;SDS_P1;SDS_P2;PMS_P1;PMS_P2;Temp;Humidity;BMP_temperature;BMP_pressure;BME280_temperature;BME280_humidity;BME280_pressure;Samples;Min_cycle;Max_cycle;Signal;HPM_P1;HPM_P2
2022/07/07 00:01:21;;;;;;;30.92;24.60;;;15.80;99.90;;;;;;5092954;28;20245;-75
2022/07/07 00:03:48;;;;;;;28.13;21.80;;;15.90;99.90;;;;;;5085712;28;20302;-75
2022/07/07 00:06:15;;;;;;;25.42;21.08;;;15.90;99.90;;;;;;5094639;28;20208;-74
2022/07/07 00:08:44;;;;;;;27.98;23.23;;;15.90;99.90;;;;;;5096828;28;20210;-75
2022/07/07 00:11:11;;;;;;;25.23;20.98;;;15.90;99.90;;;;;;5080861;28;20203;-75
2022/07/07 00:13:38;;;;;;;26.30;23.45;;;15.90;99.90;;;;;;5086541;28;20225;-74
2022/07/07 00:16:05;;;;;;;30.40;25.43;;;16.00;99.90;;;;;;5094051;28;20208;-74
2022/07/07 00:18:32;;;;;;;27.35;23.48;;;15.90;99.90;;;;;;5089519;28;20950;-75
2022/07/07 00:20:59;;;;;;;31.35;23.67;;;15.90;99.90;;;;;;5083463;28;20261;-75
2022/07/07 00:23:26;;;;;;;29.17;24.55;;;16.00;99.90;;;;;;5092243;28;20254;-74
2022/07/07 00:25:55;;;;;;;33.40;26.15;;;15.90;99.90;;;;;;5087532;28;20195;-76
2022/07/07 00:28:21;;;;;;;29.60;24.10;;;16.00;99.90;;;;;;5093712;28;20201;-76
2022/07/07 00:30:48;;;;;;;33.28;25.83;;;16.00;99.90;;;;;;5088866;28;20275;-75
2022/07/07 00:33:16;;;;;;;31.20;24.42;;;16.00;99.90;;;;;;5085267;28;20224;-74
2022/07/07 00:35:43;;;;;;;33.22;26.48;;;15.90;99.90;;;;;;5094020;28;20313;-77
2022/07/07 00:38:10;;;;;;;30.88;24.77;;;16.00;99.90;;;;;;5093618;28;20290;-76
2022/07/07 00:40:37;;;;;;;29.85;23.63;;;16.00;99.90;;;;;;5087060;28;20194;-76
2022/07/07 00:43:05;;;;;;;32.35;27.25;;;16.00;99.90;;;;;;5093932;28;20222;-76
2022/07/07 00:45:32;;;;;;;28.50;25.40;;;16.00;99.90;;;;;;5087703;28;20259;-76
2022/07/07 00:48:00;;;;;;;34.88;25.52;;;16.10;99.90;;;;;;5100228;28;20203;-75
2022/07/07 00:50:27;;;;;;;27.50;24.60;;;16.10;99.90;;;;;;5088381;28;20216;-75
2022/07/07 00:52:54;;;;;;;28.42;23.08;;;16.10;99.90;;;;;;5088871;28;20221;-74
2022/07/07 00:55:21;;;;;;;30.67;26.17;;;16.10;99.90;;;;;;5089694;28;20210;-75
2022/07/07 00:57:48;;;;;;;35.42;25.63;;;16.10;99.90;;;;;;5083387;28;20231;-74
2022/07/07 01:00:17;;;;;;;27.50;23.50;;;16.10;99.90;;;;;;5093720;28;20213;-76
2022/07/07 01:02:44;;;;;;;32.35;23.55;;;16.20;99.90;;;;;;5088827;28;20579;-75
2022/07/07 01:05:12;;;;;;;26.90;22.63;;;16.10;99.90;;;;;;5093048;28;20290;-75
2022/07/07 01:07:39;;;;;;;32.40;23.58;;;16.10;99.90;;;;;;5089077;28;20352;-75
2022/07/07 01:10:08;;;;;;;35.20;23.05;;;16.20;99.90;;;;;;5092790;28;20260;-75
2022/07/07 01:12:38;;;;;;;27.92;21.48;;;16.20;99.90;;;;;;5093023;28;20220;-74
2022/07/07 01:15:06;;;;;;;27.30;22.20;;;16.30;99.90;;;;;;5101041;28;20242;-76
2022/07/07 01:17:35;;;;;;;32.25;24.58;;;16.30;99.90;;;;;;5102859;28;20261;-76
2022/07/07 01:20:04;;;;;;;30.30;22.38;;;16.30;99.90;;;;;;5090259;28;20293;-74
2022/07/07 01:22:34;;;;;;;28.07;22.40;;;16.30;99.90;;;;;;5102847;28;20254;-74
2022/07/07 01:25:02;;;;;;;32.30;22.55;;;16.30;99.90;;;;;;5096405;28;20469;-76
2022/07/07 01:27:29;;;;;;;27.67;22.48;;;16.30;99.90;;;;;;5101926;28;20202;-74
2022/07/07 01:30:01;;;;;;;25.20;20.77;;;16.30;99.90;;;;;;5095075;28;20214;-77
2022/07/07 01:32:28;;;;;;;26.77;22.05;;;16.30;99.90;;;;;;5092873;28;20476;-74
2022/07/07 01:34:55;;;;;;;27.77;24.27;;;16.30;99.90;;;;;;5095072;28;20740;-74
2022/07/07 01:37:24;;;;;;;25.25;20.05;;;16.30;99.90;;;;;;5102264;28;20281;-76
2022/07/07 01:39:51;;;;;;;31.58;21.98;;;16.30;99.90;;;;;;5092050;28;20275;-75
2022/07/07 01:42:20;;;;;;;28.00;20.50;;;16.30;99.90;;;;;;5093538;28;20225;-76
2022/07/07 01:44:50;;;;;;;27.92;22.42;;;16.30;99.90;;;;;;5098263;28;20205;-76
2022/07/07 01:47:19;;;;;;;25.63;21.95;;;16.30;99.90;;;;;;5088527;28;20203;-76
2022/07/07 01:49:47;;;;;;;25.48;22.88;;;16.30;99.90;;;;;;5090004;28;20652;-75
2022/07/07 01:52:14;;;;;;;28.75;23.95;;;16.30;99.90;;;;;;5093172;28;20199;-75
2022/07/07 01:54:41;;;;;;;31.95;21.75;;;16.40;99.90;;;;;;5092477;28;20289;-75
2022/07/07 01:57:09;;;;;;;29.38;22.77;;;16.40;99.90;;;;;;5090573;28;20224;-75
2022/07/07 01:59:39;;;;;;;22.48;20.15;;;16.40;99.90;;;;;;5092030;28;20741;-76
2022/07/07 02:02:06;;;;;;;26.17;20.95;;;16.40;99.90;;;;;;5087678;28;20552;-76
2022/07/07 02:04:33;;;;;;;26.25;22.42;;;16.40;99.90;;;;;;5084936;28;20283;-74
2022/07/07 02:07:00;;;;;;;26.85;22.13;;;16.40;99.90;;;;;;5092610;28;20227;-75
2022/07/07 02:09:27;;;;;;;30.13;21.98;;;16.40;99.90;;;;;;5099746;28;20212;-74
2022/07/07 02:11:54;;;;;;;28.30;21.40;;;16.40;99.90;;;;;;5094659;28;20202;-76
2022/07/07 02:14:21;;;;;;;30.23;23.77;;;16.40;99.90;;;;;;5089770;28;20696;-75
2022/07/07 02:16:50;;;;;;;32.22;20.40;;;16.40;99.90;;;;;;5087775;28;20213;-75
2022/07/07 02:19:17;;;;;;;27.27;22.13;;;16.40;99.90;;;;;;5092509;28;20237;-75
2022/07/07 02:21:44;;;;;;;27.60;23.98;;;16.40;99.90;;;;;;5087839;28;20235;-75
2022/07/07 02:24:10;;;;;;;26.83;22.10;;;16.50;99.90;;;;;;5084773;28;20263;-75
2022/07/07 02:26:38;;;;;;;31.27;20.98;;;16.50;99.90;;;;;;5091107;28;20285;-76
2022/07/07 02:29:05;;;;;;;23.67;20.27;;;16.50;99.90;;;;;;5090328;28;20627;-75
2022/07/07 02:31:32;;;;;;;23.37;20.90;;;16.50;99.90;;;;;;5089730;28;20288;-76
2022/07/07 02:34:00;;;;;;;23.52;20.13;;;16.60;99.90;;;;;;5087945;28;20466;-74
2022/07/07 02:36:27;;;;;;;29.33;21.70;;;16.60;99.90;;;;;;5084305;28;20326;-75
2022/07/07 02:38:55;;;;;;;24.23;19.70;;;16.70;99.90;;;;;;5090441;28;20510;-75
2022/07/07 02:41:22;;;;;;;26.57;20.43;;;16.60;99.90;;;;;;5094307;28;20576;-75
2022/07/07 02:44:23;;;;;;;22.10;19.73;;;16.60;99.90;;;;;;5092056;28;20457;-74
2022/07/07 02:46:50;;;;;;;27.10;19.95;;;16.60;99.90;;;;;;5076290;28;20253;-74
2022/07/07 02:49:19;;;;;;;21.85;19.55;;;16.70;99.90;;;;;;5086191;28;20283;-74
2022/07/07 02:52:08;;;;;;;24.92;20.10;;;16.70;99.90;;;;;;5092699;28;20200;-75
2022/07/07 02:54:35;;;;;;;27.25;22.50;;;16.70;99.90;;;;;;5100222;28;20276;-74
2022/07/07 02:57:02;;;;;;;24.80;19.50;;;16.60;99.90;;;;;;5105863;28;20658;-75
2022/07/07 02:59:31;;;;;;;27.52;19.90;;;16.60;99.90;;;;;;5095795;28;20207;-75
2022/07/07 03:01:58;;;;;;;25.87;22.00;;;16.50;99.90;;;;;;5098733;28;20243;-75
2022/07/07 03:04:26;;;;;;;24.60;20.47;;;16.50;99.90;;;;;;5089735;28;20471;-75
2022/07/07 03:06:56;;;;;;;29.07;21.57;;;16.60;99.90;;;;;;5087683;28;20925;-76
2022/07/07 03:09:23;;;;;;;27.40;20.60;;;16.60;99.90;;;;;;5094353;28;20476;-76
2022/07/07 03:11:51;;;;;;;31.10;23.40;;;16.60;99.90;;;;;;5085102;28;20542;-75
2022/07/07 03:14:18;;;;;;;28.08;21.92;;;16.50;99.90;;;;;;5097571;28;20814;-77
2022/07/07 03:16:44;;;;;;;27.60;22.47;;;16.50;99.90;;;;;;5090445;28;20221;-73
2022/07/07 03:19:11;;;;;;;28.70;22.30;;;16.50;99.90;;;;;;5113232;28;20428;-74
2022/07/07 03:21:40;;;;;;;26.80;23.23;;;16.40;99.90;;;;;;5097834;28;20477;-74
2022/07/07 03:24:07;;;;;;;28.67;24.23;;;16.40;99.90;;;;;;5097245;28;20533;-75
2022/07/07 03:26:34;;;;;;;32.13;23.20;;;16.40;99.90;;;;;;5085353;28;20567;-74
2022/07/07 03:29:01;;;;;;;33.17;22.90;;;16.40;99.90;;;;;;5091396;28;20537;-75
2022/07/07 03:31:28;;;;;;;27.87;23.80;;;16.40;99.90;;;;;;5104909;28;20499;-75
2022/07/07 03:33:54;;;;;;;38.30;26.80;;;16.40;99.90;;;;;;5089978;28;20468;-76
2022/07/07 03:36:21;;;;;;;33.67;26.50;;;16.40;99.90;;;;;;5096090;28;20505;-76
2022/07/07 03:38:50;;;;;;;41.40;25.73;;;16.40;99.90;;;;;;5098025;28;20682;-75
2022/07/07 03:41:17;;;;;;;31.13;26.33;;;16.40;99.90;;;;;;5090335;28;20469;-75
2022/07/07 03:43:44;;;;;;;34.83;25.25;;;16.40;99.90;;;;;;5094143;28;20482;-75
2022/07/07 03:46:12;;;;;;;31.15;25.98;;;16.40;99.90;;;;;;5092058;28;20663;-75
2022/07/07 03:48:38;;;;;;;26.40;23.30;;;16.40;99.90;;;;;;5094598;28;20199;-76
2022/07/07 03:51:06;;;;;;;29.58;25.77;;;16.40;99.90;;;;;;5090079;28;20537;-74
2022/07/07 03:53:33;;;;;;;33.08;25.83;;;16.40;99.90;;;;;;5087972;28;20216;-74
2022/07/07 03:56:02;;;;;;;28.10;23.42;;;16.40;99.90;;;;;;5095352;28;20243;-74
2022/07/07 03:58:28;;;;;;;33.40;24.97;;;16.40;99.90;;;;;;5087711;28;20199;-75
2022/07/07 04:00:56;;;;;;;34.37;24.47;;;16.40;99.90;;;;;;5093232;28;20577;-75
2022/07/07 04:03:23;;;;;;;25.55;22.27;;;16.40;99.90;;;;;;5094325;28;20805;-75
2022/07/07 04:05:49;;;;;;;25.75;21.75;;;16.40;99.90;;;;;;5076411;28;20287;-75
2022/07/07 04:08:16;;;;;;;28.77;23.08;;;16.50;99.90;;;;;;5093677;28;20200;-76
2022/07/07 04:10:44;;;;;;;29.17;23.00;;;16.50;99.90;;;;;;5090155;28;20197;-75
2022/07/07 04:13:12;;;;;;;25.70;20.50;;;16.40;99.90;;;;;;5095904;28;20236;-74
2022/07/07 04:15:39;;;;;;;21.13;17.17;;;16.50;99.90;;;;;;5092910;28;20561;-75
2022/07/07 04:18:07;;;;;;;21.47;19.17;;;16.60;99.90;;;;;;5090814;28;20212;-77
2022/07/07 04:20:34;;;;;;;21.30;19.20;;;16.60;99.90;;;;;;5094205;28;20536;-74
2022/07/07 04:23:01;;;;;;;25.00;19.83;;;16.60;99.90;;;;;;5089456;28;20912;-74
2022/07/07 04:25:28;;;;;;;22.63;19.07;;;16.70;99.90;;;;;;5094421;28;20561;-76
2022/07/07 04:27:54;;;;;;;25.50;19.30;;;16.70;99.90;;;;;;5094287;28;20492;-76
2022/07/07 04:30:23;;;;;;;24.00;16.90;;;16.70;99.90;;;;;;5086898;28;20541;-76
2022/07/07 04:32:50;;;;;;;21.42;18.92;;;16.70;99.90;;;;;;5092483;28;20550;-76
2022/07/07 04:35:17;;;;;;;21.27;17.10;;;16.70;99.90;;;;;;5093932;28;20242;-76
2022/07/07 04:37:43;;;;;;;22.50;17.57;;;16.70;99.90;;;;;;5094187;28;20242;-73
2022/07/07 04:40:11;;;;;;;18.10;15.97;;;16.80;99.90;;;;;;5093868;28;20714;-75
2022/07/07 04:42:38;;;;;;;19.23;15.68;;;16.80;99.90;;;;;;5093695;28;20570;-75
2022/07/07 04:45:07;;;;;;;16.80;15.00;;;16.80;99.90;;;;;;5093776;28;20606;-75
2022/07/07 04:47:40;;;;;;;22.97;15.77;;;16.80;99.90;;;;;;5094417;28;20515;-74
2022/07/07 04:50:08;;;;;;;17.70;14.90;;;16.80;99.90;;;;;;5092643;28;20439;-74
2022/07/07 04:52:35;;;;;;;17.33;14.20;;;16.90;99.90;;;;;;5093689;28;20798;-75
2022/07/07 04:55:02;;;;;;;15.13;13.33;;;16.90;99.90;;;;;;5097150;28;20467;-76
2022/07/07 04:57:29;;;;;;;18.57;14.83;;;16.90;99.90;;;;;;5096404;28;20507;-77
2022/07/07 04:59:56;;;;;;;15.53;13.47;;;16.90;99.90;;;;;;5093795;28;20489;-74
2022/07/07 05:02:23;;;;;;;16.70;12.97;;;16.90;99.90;;;;;;5087777;28;20465;-75
2022/07/07 05:04:52;;;;;;;14.90;12.80;;;16.90;99.90;;;;;;5091889;28;20455;-76
2022/07/07 05:07:20;;;;;;;17.02;12.77;;;16.90;99.90;;;;;;5093179;28;20203;-75
2022/07/07 05:09:47;;;;;;;14.10;12.63;;;16.90;99.90;;;;;;5089649;28;20193;-74
2022/07/07 05:12:14;;;;;;;13.73;12.30;;;16.90;99.90;;;;;;5094026;28;20287;-76
2022/07/07 05:14:41;;;;;;;13.63;11.70;;;17.00;99.90;;;;;;5088455;28;20498;-75
2022/07/07 05:17:08;;;;;;;12.80;9.77;;;17.00;99.90;;;;;;5096084;28;20493;-74
2022/07/07 05:19:35;;;;;;;11.73;9.87;;;17.10;99.90;;;;;;5112223;28;20439;-74
2022/07/07 05:22:19;;;;;;;13.43;9.63;;;17.10;99.90;;;;;;5102060;28;20459;-77
2022/07/07 05:24:46;;;;;;;9.83;8.87;;;17.20;99.90;;;;;;5101324;28;20442;-74
2022/07/07 05:27:13;;;;;;;9.43;8.53;;;17.20;99.90;;;;;;5093494;28;20533;-76
2022/07/07 05:29:40;;;;;;;8.97;8.17;;;17.20;99.90;;;;;;5095809;28;20526;-76
2022/07/07 05:32:08;;;;;;;11.60;8.33;;;17.20;99.90;;;;;;5093443;28;20808;-76
2022/07/07 05:34:34;;;;;;;10.82;8.65;;;17.20;99.90;;;;;;5104461;28;20443;-75
2022/07/07 05:37:01;;;;;;;10.20;8.63;;;17.20;99.90;;;;;;5094358;28;20308;-75
2022/07/07 05:39:30;;;;;;;8.25;7.45;;;17.20;99.90;;;;;;5092471;28;20331;-76
2022/07/07 05:41:57;;;;;;;8.05;7.32;;;17.10;99.90;;;;;;5099261;28;20245;-76
2022/07/07 05:44:24;;;;;;;6.73;6.10;;;17.10;99.90;;;;;;5091327;28;20308;-78
2022/07/07 05:46:51;;;;;;;9.00;7.53;;;17.20;99.90;;;;;;5090968;28;20438;-78
2022/07/07 05:49:19;;;;;;;6.03;4.70;;;17.30;99.90;;;;;;5083722;28;20873;-77
2022/07/07 05:51:46;;;;;;;7.23;5.20;;;17.30;99.90;;;;;;5093637;28;20451;-77
2022/07/07 05:54:13;;;;;;;10.90;5.10;;;17.40;99.90;;;;;;5090330;28;20494;-76
2022/07/07 05:56:41;;;;;;;6.23;4.60;;;17.40;99.90;;;;;;5093779;28;20539;-76
2022/07/07 05:59:08;;;;;;;7.00;3.67;;;17.30;99.90;;;;;;5097132;28;20535;-77
2022/07/07 06:01:35;;;;;;;3.58;2.92;;;17.30;99.90;;;;;;5090781;28;20443;-75
2022/07/07 06:04:02;;;;;;;8.10;3.80;;;17.30;99.90;;;;;;5079772;28;20226;-76
2022/07/07 06:06:29;;;;;;;7.23;4.37;;;17.30;99.90;;;;;;5093082;28;20538;-77
2022/07/07 06:08:56;;;;;;;4.13;3.73;;;17.30;99.90;;;;;;5085898;28;20572;-75
2022/07/07 06:11:23;;;;;;;6.33;4.50;;;17.50;99.90;;;;;;5092650;28;20509;-77
2022/07/07 06:13:52;;;;;;;7.07;3.77;;;17.70;99.90;;;;;;5091212;28;20538;-75
2022/07/07 06:16:38;;;;;;;4.87;3.00;;;17.80;99.90;;;;;;5103077;28;20482;-75
2022/07/07 06:19:05;;;;;;;3.27;2.43;;;18.00;99.90;;;;;;5093581;28;20432;-77
2022/07/07 06:21:32;;;;;;;2.30;2.03;;;18.20;99.90;;;;;;5100179;28;20435;-78
2022/07/07 06:23:59;;;;;;;6.77;3.13;;;18.30;99.90;;;;;;5104471;28;20472;-77
2022/07/07 06:26:26;;;;;;;2.50;1.90;;;18.40;99.90;;;;;;5099428;28;20460;-77
2022/07/07 06:28:54;;;;;;;5.77;2.30;;;18.50;99.90;;;;;;5096234;28;20479;-77
2022/07/07 06:31:22;;;;;;;2.50;1.80;;;18.60;99.90;;;;;;5096574;28;20497;-76
2022/07/07 06:33:49;;;;;;;2.00;1.80;;;18.90;99.90;;;;;;5084907;28;20473;-77
2022/07/07 06:36:16;;;;;;;3.43;1.83;;;18.90;99.90;;;;;;5093587;28;20900;-78
2022/07/07 06:38:43;;;;;;;2.03;0.90;;;18.90;99.90;;;;;;5093405;28;20459;-76
2022/07/07 06:41:10;;;;;;;4.03;1.37;;;18.80;99.90;;;;;;5087227;28;20454;-76
2022/07/07 06:43:37;;;;;;;5.33;1.80;;;18.70;99.90;;;;;;5090853;28;20543;-74
2022/07/07 06:46:06;;;;;;;2.10;1.70;;;18.70;99.90;;;;;;5095677;28;20460;-76
2022/07/07 06:48:33;;;;;;;1.87;1.00;;;18.60;99.90;;;;;;5090039;28;20439;-76
2022/07/07 06:51:00;;;;;;;2.40;1.30;;;18.60;99.90;;;;;;5089953;28;20505;-75
2022/07/07 06:53:26;;;;;;;1.30;1.20;;;18.50;99.90;;;;;;5095873;28;20517;-75
2022/07/07 06:55:54;;;;;;;7.03;1.43;;;18.50;99.90;;;;;;5104700;28;20475;-75
2022/07/07 06:58:21;;;;;;;2.40;1.70;;;18.50;99.90;;;;;;5093810;28;20456;-75
2022/07/07 07:00:48;;;;;;;2.43;1.30;;;18.50;99.90;;;;;;5095008;28;20954;-78
2022/07/07 07:03:16;;;;;;;2.43;1.50;;;18.50;99.90;;;;;;5095419;28;20472;-76
2022/07/07 07:05:43;;;;;;;6.47;4.73;;;18.80;99.90;;;;;;5085872;28;20950;-76
2022/07/07 07:08:10;;;;;;;2.90;1.53;;;19.00;99.90;;;;;;5086743;28;20441;-76
2022/07/07 07:10:37;;;;;;;5.17;1.90;;;19.10;99.90;;;;;;5101006;28;20535;-76
2022/07/07 07:13:04;;;;;;;2.20;1.40;;;19.20;99.90;;;;;;5093349;28;20456;-76
2022/07/07 07:15:31;;;;;;;3.00;1.40;;;19.30;99.90;;;;;;5090942;28;20888;-76
2022/07/07 07:17:58;;;;;;;3.40;1.40;;;19.50;99.90;;;;;;5102666;28;20507;-74
2022/07/07 07:20:35;;;;;;;3.47;1.20;;;19.70;99.90;;;;;;5106819;28;20435;-77
2022/07/07 07:23:02;;;;;;;3.07;1.40;;;19.90;99.90;;;;;;5091327;28;20470;-76
2022/07/07 07:25:29;;;;;;;1.77;1.47;;;20.30;99.90;;;;;;5098904;28;20491;-77
2022/07/07 07:27:56;;;;;;;4.93;1.30;;;20.90;99.90;;;;;;5087683;28;20912;-77
2022/07/07 07:30:23;;;;;;;4.03;1.50;;;21.20;99.90;;;;;;5086609;28;20449;-78
2022/07/07 07:32:51;;;;;;;4.03;1.30;;;21.60;99.90;;;;;;5090547;28;20466;-78
2022/07/07 07:35:18;;;;;;;2.00;1.30;;;21.90;99.90;;;;;;5104740;28;20473;-76
2022/07/07 07:37:46;;;;;;;3.00;1.50;;;22.00;99.90;;;;;;5094290;28;20476;-76
2022/07/07 07:40:14;;;;;;;7.60;2.03;;;21.90;99.90;;;;;;5086188;28;20521;-76
2022/07/07 07:42:41;;;;;;;2.50;1.70;;;21.40;99.90;;;;;;5092104;28;20468;-76
2022/07/07 07:45:12;;;;;;;4.03;2.00;;;20.90;99.90;;;;;;5092166;28;20447;-75
2022/07/07 07:47:41;;;;;;;3.90;2.97;;;20.50;99.90;;;;;;5093566;28;20486;-75
2022/07/07 07:50:10;;;;;;;4.70;2.20;;;20.10;99.90;;;;;;5091695;28;20939;-77
2022/07/07 07:52:37;;;;;;;3.37;1.83;;;19.80;99.90;;;;;;5095126;28;20578;-77
2022/07/07 07:55:07;;;;;;;4.67;2.63;;;19.60;99.90;;;;;;5091560;28;20445;-75
2022/07/07 07:57:34;;;;;;;4.03;2.00;;;19.80;99.90;;;;;;5096097;28;20464;-78
2022/07/07 08:00:03;;;;;;;5.93;2.40;;;20.60;99.90;;;;;;5092890;28;20453;-77
2022/07/07 08:02:30;;;;;;;2.93;1.87;;;21.10;99.90;;;;;;5086481;28;20467;-76
2022/07/07 08:04:57;;;;;;;5.00;2.33;;;22.10;99.90;;;;;;5089583;28;20497;-75
2022/07/07 08:07:25;;;;;;;3.23;2.23;;;23.80;99.90;;;;;;5090899;28;20529;-76
2022/07/07 08:09:52;;;;;;;4.77;2.40;;;24.50;99.90;;;;;;5087375;28;20444;-76
2022/07/07 08:12:20;;;;;;;4.33;3.40;;;24.10;99.90;;;;;;5094711;28;20460;-77
2022/07/07 08:14:47;;;;;;;4.43;3.10;;;23.70;99.90;;;;;;5084816;28;20480;-75
2022/07/07 08:17:14;;;;;;;3.50;2.73;;;23.00;99.90;;;;;;5096647;28;20483;-76
2022/07/07 08:19:41;;;;;;;4.10;2.57;;;22.00;99.90;;;;;;5093892;28;20464;-77
2022/07/07 08:22:08;;;;;;;4.27;2.47;;;21.40;99.90;;;;;;5094837;28;20537;-75
2022/07/07 08:24:35;;;;;;;7.63;2.73;;;21.50;99.90;;;;;;5095476;28;20469;-76
2022/07/07 08:27:03;;;;;;;3.03;2.00;;;21.40;99.90;;;;;;5087062;28;20475;-77
2022/07/07 08:29:31;;;;;;;4.30;2.60;;;21.20;99.90;;;;;;5092773;28;20446;-76
2022/07/07 08:31:58;;;;;;;3.93;2.23;;;20.80;99.90;;;;;;5088527;28;20531;-76
2022/07/07 08:34:25;;;;;;;3.57;2.70;;;20.60;99.90;;;;;;5091984;28;20498;-76
2022/07/07 08:36:52;;;;;;;6.13;3.73;;;20.40;99.90;;;;;;5096324;28;20517;-76
2022/07/07 08:39:20;;;;;;;2.77;2.10;;;20.30;99.90;;;;;;5093607;28;20449;-76
2022/07/07 08:41:47;;;;;;;4.40;3.27;;;20.30;99.90;;;;;;5089037;28;20459;-77
2022/07/07 08:44:16;;;;;;;6.93;2.73;;;20.50;99.90;;;;;;5093979;28;20458;-76
2022/07/07 08:46:45;;;;;;;4.67;2.60;;;20.70;99.90;;;;;;5093008;28;20432;-76
2022/07/07 08:49:12;;;;;;;5.30;3.20;;;21.10;99.90;;;;;;5093431;28;20439;-76
2022/07/07 08:51:41;;;;;;;5.60;2.23;;;21.30;99.90;;;;;;5100519;28;20522;-77
2022/07/07 08:54:10;;;;;;;4.27;2.57;;;21.60;99.90;;;;;;5091834;28;20475;-76
2022/07/07 08:56:38;;;;;;;5.27;2.23;;;21.90;99.90;;;;;;5092061;28;20478;-77
2022/07/07 08:59:06;;;;;;;8.40;2.60;;;22.40;99.90;;;;;;5098936;28;20447;-76
2022/07/07 09:01:33;;;;;;;5.57;3.10;;;23.20;99.90;;;;;;5088875;28;20446;-77
2022/07/07 09:04:03;;;;;;;6.00;2.33;;;23.50;99.90;;;;;;5093494;28;20461;-77
2022/07/07 09:06:30;;;;;;;3.20;1.53;;;23.60;99.90;;;;;;5093661;28;20850;-75
2022/07/07 09:08:59;;;;;;;3.90;1.70;;;23.60;99.90;;;;;;5089319;28;20455;-76
2022/07/07 09:11:26;;;;;;;7.23;1.83;;;24.40;99.90;;;;;;5095836;28;20497;-76
2022/07/07 09:13:58;;;;;;;4.30;1.80;;;24.50;99.90;;;;;;5095696;28;20502;-77
2022/07/07 09:16:25;;;;;;;3.80;1.87;;;24.70;99.90;;;;;;5089788;28;20457;-78
2022/07/07 09:18:53;;;;;;;4.43;1.63;;;25.00;99.90;;;;;;5095758;28;20460;-77
2022/07/07 09:21:29;;;;;;;2.73;2.27;;;24.60;99.90;;;;;;5107977;28;20446;-77
2022/07/07 09:23:58;;;;;;;4.57;2.47;;;24.00;99.90;;;;;;5102613;28;20510;-77
2022/07/07 09:26:38;;;;;;;3.60;2.57;;;23.30;99.90;;;;;;5089120;28;20492;-77
2022/07/07 09:29:36;;;;;;;7.00;2.87;;;22.60;99.90;;;;;;5091740;28;20444;-79
2022/07/07 09:32:05;;;;;;;9.13;3.93;;;21.90;99.90;;;;;;5092707;28;20448;-78
2022/07/07 09:34:36;;;;;;;10.17;2.70;;;21.30;99.90;;;;;;5097918;28;20460;-77
2022/07/07 09:39:54;;;;;;;5.70;2.47;;;20.20;99.90;;;;;;5097793;28;20436;-76
2022/07/07 09:42:22;;;;;;;7.70;2.80;;;19.80;99.90;;;;;;5094194;28;20443;-78
2022/07/07 09:44:51;;;;;;;8.67;2.40;;;19.60;99.90;;;;;;5101423;28;20545;-79
2022/07/07 09:47:19;;;;;;;7.87;3.50;;;19.60;99.90;;;;;;5102097;28;20501;-80
2022/07/07 09:50:01;;;;;;;10.07;3.13;;;19.50;99.90;;;;;;5101809;28;20449;-77
2022/07/07 09:52:30;;;;;;;8.53;3.40;;;19.50;99.90;;;;;;5088224;28;20472;-82
2022/07/07 09:54:58;;;;;;;10.20;4.10;;;19.30;99.90;;;;;;5086207;28;20451;-77
2022/07/07 09:57:27;;;;;;;10.60;3.70;;;19.40;99.90;;;;;;5085930;28;20483;-79
2022/07/07 09:59:55;;;;;;;8.97;3.10;;;19.40;99.90;;;;;;5095565;28;20983;-79
2022/07/07 10:02:23;;;;;;;8.33;3.20;;;19.60;99.90;;;;;;5088938;28;20460;-79
2022/07/07 10:04:52;;;;;;;6.37;3.70;;;19.90;99.90;;;;;;5092958;28;20478;-78
2022/07/07 10:07:21;;;;;;;8.20;3.40;;;20.30;99.90;;;;;;5098621;28;20435;-77
2022/07/07 10:09:53;;;;;;;10.00;2.43;;;20.70;99.90;;;;;;5096939;28;21605;-77
2022/07/07 10:12:23;;;;;;;6.70;2.13;;;20.70;99.90;;;;;;5093741;28;20421;-78
2022/07/07 10:14:54;;;;;;;6.37;1.90;;;20.60;99.90;;;;;;5098310;28;20489;-79
2022/07/07 10:17:22;;;;;;;10.03;3.50;;;20.50;99.90;;;;;;5090233;28;20513;-79
2022/07/07 10:19:49;;;;;;;3.60;2.20;;;20.90;99.90;;;;;;5097723;28;20489;-79
2022/07/07 10:22:16;;;;;;;4.57;2.00;;;21.10;99.90;;;;;;5097172;28;20450;-77
2022/07/07 10:24:44;;;;;;;4.20;1.97;;;21.70;99.90;;;;;;5102651;28;20459;-78
2022/07/07 10:27:22;;;;;;;5.10;2.20;;;22.80;99.90;;;;;;5111034;28;20486;-79
2022/07/07 10:29:50;;;;;;;5.63;1.83;;;23.30;99.90;;;;;;5077931;28;20444;-79
2022/07/07 10:32:19;;;;;;;7.17;1.90;;;23.30;99.90;;;;;;5101893;28;21021;-78
2022/07/07 10:34:50;;;;;;;7.67;2.70;;;23.20;99.90;;;;;;5077300;28;20439;-79
2022/07/07 10:37:18;;;;;;;3.10;1.63;;;23.50;99.90;;;;;;5101818;28;20477;-79
2022/07/07 10:39:47;;;;;;;7.23;2.83;;;24.20;99.90;;;;;;5094198;28;20504;-80
2022/07/07 10:42:40;;;;;;;4.87;1.90;;;24.50;99.60;;;;;;5094522;28;21007;-76
2022/07/07 10:45:10;;;;;;;7.93;4.10;;;24.50;99.00;;;;;;5087970;28;20532;-75
2022/07/07 10:47:38;;;;;;;4.83;1.63;;;24.00;98.90;;;;;;5092381;28;20476;-77
2022/07/07 10:50:28;;;;;;;6.83;2.43;;;23.50;99.90;;;;;;5090728;28;20870;-77
2022/07/07 10:52:55;;;;;;;9.30;2.07;;;22.50;99.90;;;;;;5091352;28;20488;-77
2022/07/07 10:55:22;;;;;;;3.30;1.53;;;22.10;99.90;;;;;;5092427;28;20866;-78
2022/07/07 10:57:50;;;;;;;5.13;2.17;;;22.10;99.90;;;;;;5089573;28;20525;-79
2022/07/07 11:00:29;;;;;;;6.33;1.37;;;22.30;99.90;;;;;;5098737;28;20941;-81
2022/07/07 11:03:13;;;;;;;1.70;0.90;;;22.40;99.90;;;;;;5088384;28;20496;-79
2022/07/07 11:05:46;;;;;;;6.80;2.30;;;22.80;99.90;;;;;;5091055;28;20472;-78
2022/07/07 11:08:16;;;;;;;6.43;2.63;;;23.30;99.90;;;;;;5100768;28;20436;-77
2022/07/07 11:10:53;;;;;;;3.90;1.70;;;23.40;99.90;;;;;;5100271;28;20436;-80
2022/07/07 11:13:23;;;;;;;2.50;1.70;;;23.00;99.90;;;;;;5095396;28;20491;-80
2022/07/07 11:15:51;;;;;;;3.90;1.53;;;22.60;99.90;;;;;;5092466;28;20494;-78
2022/07/07 11:18:20;;;;;;;3.93;1.63;;;22.40;99.90;;;;;;5096978;28;20582;-78
2022/07/07 11:20:58;;;;;;;3.73;1.63;;;22.10;99.90;;;;;;5092804;28;20442;-79
2022/07/07 11:23:42;;;;;;;5.33;2.70;;;21.80;99.90;;;;;;5097941;28;20456;-78
2022/07/07 11:26:10;;;;;;;4.67;2.53;;;21.70;99.90;;;;;;5103820;28;20515;-78
2022/07/07 11:28:38;;;;;;;5.90;1.47;;;21.80;99.90;;;;;;5115816;28;20431;-77
2022/07/07 11:31:09;;;;;;;3.87;1.23;;;21.70;99.90;;;;;;5109547;28;20446;-79
2022/07/07 11:33:38;;;;;;;2.50;1.77;;;21.60;99.90;;;;;;5108677;28;20460;-78
2022/07/07 11:36:17;;;;;;;1.60;1.20;;;21.40;99.90;;;;;;5098066;28;20458;-78
2022/07/07 11:38:51;;;;;;;4.40;1.60;;;21.30;99.90;;;;;;5090531;28;20503;-78
2022/07/07 11:41:18;;;;;;;3.80;1.30;;;21.10;99.90;;;;;;5095373;28;20479;-79
2022/07/07 11:43:54;;;;;;;3.70;1.90;;;20.90;99.90;;;;;;5090780;28;20551;-77
2022/07/07 11:46:23;;;;;;;3.87;2.40;;;20.50;99.90;;;;;;5088688;28;20479;-78
2022/07/07 11:48:50;;;;;;;4.07;2.47;;;20.10;99.90;;;;;;5088096;28;20527;-79
2022/07/07 11:51:18;;;;;;;4.40;2.33;;;19.80;99.90;;;;;;5095769;28;20461;-79
2022/07/07 11:53:57;;;;;;;3.53;1.80;;;19.50;99.90;;;;;;5093348;28;20555;-77
2022/07/07 11:56:35;;;;;;;5.67;2.07;;;19.50;99.90;;;;;;5093436;28;20451;-76
2022/07/07 11:59:04;;;;;;;2.13;1.43;;;19.50;99.90;;;;;;5086805;28;20475;-77
2022/07/07 12:01:32;;;;;;;4.70;2.33;;;19.40;99.90;;;;;;5094697;28;20498;-79
2022/07/07 12:04:01;;;;;;;5.73;1.93;;;19.30;99.90;;;;;;5102354;28;20473;-78
2022/07/07 12:06:28;;;;;;;4.50;2.53;;;19.30;99.90;;;;;;5090624;28;20428;-81
2022/07/07 12:08:57;;;;;;;4.03;1.60;;;19.50;99.90;;;;;;5085386;28;20536;-77
2022/07/07 12:11:24;;;;;;;4.80;2.27;;;19.50;99.90;;;;;;5103440;28;20442;-80
2022/07/07 12:13:53;;;;;;;6.63;2.63;;;19.40;99.90;;;;;;5102064;28;20471;-80
2022/07/07 12:16:22;;;;;;;8.03;3.20;;;19.50;99.90;;;;;;5088636;28;21088;-79
2022/07/07 12:18:49;;;;;;;6.87;2.50;;;19.50;99.90;;;;;;5100215;28;20471;-80
2022/07/07 12:21:23;;;;;;;11.87;2.90;;;19.60;99.90;;;;;;5094010;28;20441;-79
2022/07/07 12:23:53;;;;;;;7.53;3.40;;;19.80;99.90;;;;;;5075342;28;20810;-80
2022/07/07 12:26:25;;;;;;;15.97;3.73;;;20.10;99.90;;;;;;5094907;28;20459;-78
2022/07/07 12:28:57;;;;;;;19.13;3.80;;;20.40;99.90;;;;;;5094678;28;20444;-80
2022/07/07 12:31:27;;;;;;;10.37;3.77;;;20.50;99.90;;;;;;5094476;28;20959;-79
2022/07/07 12:33:55;;;;;;;14.30;4.27;;;20.80;99.90;;;;;;5086914;28;20548;-78
2022/07/07 12:36:24;;;;;;;11.73;3.10;;;20.90;99.90;;;;;;5094461;28;20450;-80
2022/07/07 12:38:55;;;;;;;10.43;3.10;;;21.00;99.90;;;;;;5093206;28;20843;-81
2022/07/07 12:41:28;;;;;;;9.55;3.38;;;21.00;99.90;;;;;;5097720;28;20441;-80
2022/07/07 12:44:12;;;;;;;10.18;3.38;;;20.80;99.90;;;;;;5091515;28;20888;-82
2022/07/07 12:46:40;;;;;;;7.33;2.80;;;21.00;99.90;;;;;;5085352;28;20616;-79
2022/07/07 12:49:10;;;;;;;11.00;3.37;;;21.50;99.90;;;;;;5082448;28;20462;-83